sensor_id;sensor_type;location;lat;lon;timestamp;pressure;altitude;pressure_sealevel;temperature;humidity
52032;BME280;38044;45.148;39.604;2023-06-22T00:02:15;101055.47;;;18.29;80.20
52032;BME280;38044;45.148;39.604;2023-06-22T00:04:42;101049.34;;;18.32;79.62
52032;BME280;38044;45.148;39.604;2023-06-22T00:07:08;101056.19;;;18.38;79.18
52032;BME280;38044;45.148;39.604;2023-06-22T00:09:34;101043.63;;;18.45;78.33
52032;BME280;38044;45.148;39.604;2023-06-22T00:11:59;101053.72;;;18.45;78.45
52032;BME280;38044;45.148;39.604;2023-06-22T00:14:25;101055.78;;;18.48;78.10
52032;BME280;38044;45.148;39.604;2023-06-22T00:16:51;101048.28;;;18.45;77.77
52032;BME280;38044;45.148;39.604;2023-06-22T00:19:23;101044.16;;;18.39;78.09
52032;BME280;38044;45.148;39.604;2023-06-22T00:21:50;101036.19;;;18.34;78.10
52032;BME280;38044;45.148;39.604;2023-06-22T00:24:21;101046.16;;;18.30;78.85
52032;BME280;38044;45.148;39.604;2023-06-22T00:26:50;101054.13;;;18.35;78.46
52032;BME280;38044;45.148;39.604;2023-06-22T00:29:16;101058.25;;;18.41;79.44
52032;BME280;38044;45.148;39.604;2023-06-22T00:31:43;101051.47;;;18.47;79.82
52032;BME280;38044;45.148;39.604;2023-06-22T00:34:09;101043.78;;;18.49;79.92
52032;BME280;38044;45.148;39.604;2023-06-22T00:36:36;101050.56;;;18.43;80.70
52032;BME280;38044;45.148;39.604;2023-06-22T00:39:02;101055.13;;;18.30;79.50
52032;BME280;38044;45.148;39.604;2023-06-22T00:41:28;101056.38;;;18.33;80.77
52032;BME280;38044;45.148;39.604;2023-06-22T00:43:54;101059.78;;;18.30;80.53
52032;BME280;38044;45.148;39.604;2023-06-22T00:46:21;101050.94;;;18.33;80.68
52032;BME280;38044;45.148;39.604;2023-06-22T00:48:48;101051.06;;;18.36;80.62
52032;BME280;38044;45.148;39.604;2023-06-22T00:51:16;101053.47;;;18.38;80.28
52032;BME280;38044;45.148;39.604;2023-06-22T00:53:42;101051.47;;;18.26;80.92
52032;BME280;38044;45.148;39.604;2023-06-22T00:56:09;101051.84;;;18.16;81.38
52032;BME280;38044;45.148;39.604;2023-06-22T00:58:38;101046.84;;;17.97;82.58
52032;BME280;38044;45.148;39.604;2023-06-22T01:01:07;101055.38;;;17.87;82.94
52032;BME280;38044;45.148;39.604;2023-06-22T01:03:33;101054.72;;;17.90;83.09
52032;BME280;38044;45.148;39.604;2023-06-22T01:06:10;101062.88;;;17.90;82.74
52032;BME280;38044;45.148;39.604;2023-06-22T01:08:46;101066.53;;;17.94;81.98
52032;BME280;38044;45.148;39.604;2023-06-22T01:11:22;101069.63;;;17.84;81.49
52032;BME280;38044;45.148;39.604;2023-06-22T01:14:00;101075.09;;;17.75;81.02
52032;BME280;38044;45.148;39.604;2023-06-22T01:16:33;101063.25;;;17.71;80.87
52032;BME280;38044;45.148;39.604;2023-06-22T01:19:02;101069.03;;;17.78;81.21
52032;BME280;38044;45.148;39.604;2023-06-22T01:21:31;101057.31;;;17.77;81.63
52032;BME280;38044;45.148;39.604;2023-06-22T01:29:15;101076.00;;;17.88;82.63
52032;BME280;38044;45.148;39.604;2023-06-22T01:31:43;101072.50;;;17.87;83.02
52032;BME280;38044;45.148;39.604;2023-06-22T01:34:10;101069.50;;;17.71;82.43
52032;BME280;38044;45.148;39.604;2023-06-22T01:36:38;101081.13;;;17.89;82.55
52032;BME280;38044;45.148;39.604;2023-06-22T01:39:05;101073.94;;;17.85;82.66
52032;BME280;38044;45.148;39.604;2023-06-22T01:41:36;101088.59;;;18.01;81.61
52032;BME280;38044;45.148;39.604;2023-06-22T01:44:05;101089.09;;;17.94;82.10
52032;BME280;38044;45.148;39.604;2023-06-22T01:46:34;101104.84;;;17.80;82.01
52032;BME280;38044;45.148;39.604;2023-06-22T01:49:02;101096.78;;;17.92;81.94
52032;BME280;38044;45.148;39.604;2023-06-22T01:51:28;101102.75;;;17.86;82.07
52032;BME280;38044;45.148;39.604;2023-06-22T01:53:53;101097.72;;;17.96;81.85
52032;BME280;38044;45.148;39.604;2023-06-22T01:56:19;101093.06;;;17.97;81.71
52032;BME280;38044;45.148;39.604;2023-06-22T01:58:52;101100.41;;;18.05;81.70
52032;BME280;38044;45.148;39.604;2023-06-22T02:01:29;101094.81;;;18.01;81.01
52032;BME280;38044;45.148;39.604;2023-06-22T02:04:09;101111.66;;;18.24;79.83
52032;BME280;38044;45.148;39.604;2023-06-22T02:06:38;101116.69;;;18.85;78.66
52032;BME280;38044;45.148;39.604;2023-06-22T02:09:14;101122.38;;;19.47;75.67
52032;BME280;38044;45.148;39.604;2023-06-22T02:11:43;101119.38;;;19.85;74.59
52032;BME280;38044;45.148;39.604;2023-06-22T02:14:10;101119.63;;;20.29;71.98
52032;BME280;38044;45.148;39.604;2023-06-22T02:16:37;101118.78;;;20.65;70.21
52032;BME280;38044;45.148;39.604;2023-06-22T02:19:03;101103.34;;;20.85;69.16
52032;BME280;38044;45.148;39.604;2023-06-22T02:21:31;101119.72;;;20.98;67.68
52032;BME280;38044;45.148;39.604;2023-06-22T02:23:58;101124.47;;;21.01;67.74
52032;BME280;38044;45.148;39.604;2023-06-22T02:26:25;101119.59;;;20.94;67.85
52032;BME280;38044;45.148;39.604;2023-06-22T02:28:52;101113.34;;;20.93;68.04
52032;BME280;38044;45.148;39.604;2023-06-22T02:31:18;101122.75;;;20.68;68.94
52032;BME280;38044;45.148;39.604;2023-06-22T02:33:45;101136.19;;;20.48;69.81
52032;BME280;38044;45.148;39.604;2023-06-22T02:36:11;101132.00;;;20.39;70.16
52032;BME280;38044;45.148;39.604;2023-06-22T02:38:41;101129.16;;;20.47;69.38
52032;BME280;38044;45.148;39.604;2023-06-22T02:41:14;101140.88;;;21.01;67.97
52032;BME280;38044;45.148;39.604;2023-06-22T02:43:44;101135.66;;;21.24;67.54
52032;BME280;38044;45.148;39.604;2023-06-22T02:46:11;101150.53;;;21.39;67.36
52032;BME280;38044;45.148;39.604;2023-06-22T02:48:41;101143.25;;;21.58;66.73
52032;BME280;38044;45.148;39.604;2023-06-22T02:51:07;101151.91;;;21.76;65.80
52032;BME280;38044;45.148;39.604;2023-06-22T02:53:33;101151.09;;;21.92;65.30
52032;BME280;38044;45.148;39.604;2023-06-22T02:56:00;101144.38;;;21.73;65.67
52032;BME280;38044;45.148;39.604;2023-06-22T02:58:27;101145.72;;;21.35;67.25
52032;BME280;38044;45.148;39.604;2023-06-22T03:00:53;101143.25;;;21.30;67.93
52032;BME280;38044;45.148;39.604;2023-06-22T03:03:19;101131.44;;;21.26;67.63
52032;BME280;38044;45.148;39.604;2023-06-22T03:05:45;101144.81;;;21.31;68.16
52032;BME280;38044;45.148;39.604;2023-06-22T03:08:11;101150.19;;;21.28;68.41
52032;BME280;38044;45.148;39.604;2023-06-22T03:10:37;101161.13;;;21.28;68.58
52032;BME280;38044;45.148;39.604;2023-06-22T03:13:03;101152.09;;;21.40;68.07
52032;BME280;38044;45.148;39.604;2023-06-22T03:15:29;101154.25;;;21.62;67.88
52032;BME280;38044;45.148;39.604;2023-06-22T03:20:22;101157.38;;;22.24;65.30
52032;BME280;38044;45.148;39.604;2023-06-22T03:22:48;101161.19;;;22.19;64.79
52032;BME280;38044;45.148;39.604;2023-06-22T03:25:14;101148.84;;;22.45;64.16
52032;BME280;38044;45.148;39.604;2023-06-22T03:27:41;101157.31;;;23.10;63.31
52032;BME280;38044;45.148;39.604;2023-06-22T03:30:09;101152.22;;;23.97;60.24
52032;BME280;38044;45.148;39.604;2023-06-22T03:32:35;101148.47;;;24.62;57.95
52032;BME280;38044;45.148;39.604;2023-06-22T03:35:01;101155.75;;;25.45;55.77
52032;BME280;38044;45.148;39.604;2023-06-22T03:37:28;101146.44;;;25.57;54.50
52032;BME280;38044;45.148;39.604;2023-06-22T03:39:54;101154.28;;;25.55;54.61
52032;BME280;38044;45.148;39.604;2023-06-22T03:42:20;101161.13;;;25.75;55.36
52032;BME280;38044;45.148;39.604;2023-06-22T03:44:46;101157.25;;;26.32;52.92
52032;BME280;38044;45.148;39.604;2023-06-22T03:47:13;101162.38;;;27.06;51.71
52032;BME280;38044;45.148;39.604;2023-06-22T03:49:39;101159.31;;;27.22;50.29
52032;BME280;38044;45.148;39.604;2023-06-22T03:52:05;101170.38;;;27.33;51.12
52032;BME280;38044;45.148;39.604;2023-06-22T03:54:31;101171.97;;;27.45;50.18
52032;BME280;38044;45.148;39.604;2023-06-22T03:56:58;101172.84;;;27.88;48.99
52032;BME280;38044;45.148;39.604;2023-06-22T03:59:24;101164.50;;;27.59;48.13
52032;BME280;38044;45.148;39.604;2023-06-22T04:01:50;101185.38;;;27.39;49.25
52032;BME280;38044;45.148;39.604;2023-06-22T04:04:19;101190.03;;;27.21;50.25
52032;BME280;38044;45.148;39.604;2023-06-22T04:06:45;101184.44;;;27.06;49.51
52032;BME280;38044;45.148;39.604;2023-06-22T04:09:11;101193.13;;;27.05;50.15
52032;BME280;38044;45.148;39.604;2023-06-22T04:11:37;101193.22;;;27.23;49.89
52032;BME280;38044;45.148;39.604;2023-06-22T04:14:03;101192.34;;;27.15;49.19
52032;BME280;38044;45.148;39.604;2023-06-22T04:16:29;101208.47;;;27.02;49.32
52032;BME280;38044;45.148;39.604;2023-06-22T04:18:55;101203.84;;;27.17;49.73
52032;BME280;38044;45.148;39.604;2023-06-22T04:21:21;101202.84;;;27.93;48.20
52032;BME280;38044;45.148;39.604;2023-06-22T04:23:47;101202.38;;;28.38;46.26
52032;BME280;38044;45.148;39.604;2023-06-22T04:26:13;101190.16;;;28.46;46.60
52032;BME280;38044;45.148;39.604;2023-06-22T04:28:40;101189.59;;;29.08;45.23
52032;BME280;38044;45.148;39.604;2023-06-22T04:31:06;101192.44;;;29.60;44.57
52032;BME280;38044;45.148;39.604;2023-06-22T04:33:32;101192.81;;;29.66;44.66
52032;BME280;38044;45.148;39.604;2023-06-22T04:35:58;101177.28;;;29.76;43.35
52032;BME280;38044;45.148;39.604;2023-06-22T04:38:26;101191.06;;;29.86;43.68
52032;BME280;38044;45.148;39.604;2023-06-22T04:40:53;101186.75;;;29.85;42.92
52032;BME280;38044;45.148;39.604;2023-06-22T04:43:19;101201.66;;;29.43;43.62
52032;BME280;38044;45.148;39.604;2023-06-22T04:45:45;101190.78;;;29.70;43.30
52032;BME280;38044;45.148;39.604;2023-06-22T04:48:11;101195.63;;;29.62;44.54
52032;BME280;38044;45.148;39.604;2023-06-22T04:50:41;101195.78;;;29.90;44.17
52032;BME280;38044;45.148;39.604;2023-06-22T04:53:07;101194.28;;;30.68;42.67
52032;BME280;38044;45.148;39.604;2023-06-22T04:55:38;101190.81;;;31.22;40.74
52032;BME280;38044;45.148;39.604;2023-06-22T04:58:07;101194.22;;;30.71;41.51
52032;BME280;38044;45.148;39.604;2023-06-22T05:00:33;101202.78;;;30.88;41.78
52032;BME280;38044;45.148;39.604;2023-06-22T05:03:02;101199.03;;;30.67;41.95
52032;BME280;38044;45.148;39.604;2023-06-22T05:05:29;101213.19;;;31.69;41.24
52032;BME280;38044;45.148;39.604;2023-06-22T05:07:56;101209.56;;;31.45;41.05
52032;BME280;38044;45.148;39.604;2023-06-22T05:10:25;101210.34;;;32.23;39.56
52032;BME280;38044;45.148;39.604;2023-06-22T05:12:51;101209.69;;;32.15;39.66
52032;BME280;38044;45.148;39.604;2023-06-22T05:15:17;101207.28;;;31.90;39.33
52032;BME280;38044;45.148;39.604;2023-06-22T05:17:45;101207.78;;;31.85;40.25
52032;BME280;38044;45.148;39.604;2023-06-22T05:20:12;101201.31;;;31.41;39.95
52032;BME280;38044;45.148;39.604;2023-06-22T05:22:39;101206.44;;;31.70;39.83
52032;BME280;38044;45.148;39.604;2023-06-22T05:25:10;101197.16;;;32.27;39.21
52032;BME280;38044;45.148;39.604;2023-06-22T05:27:36;101218.75;;;32.39;38.66
52032;BME280;38044;45.148;39.604;2023-06-22T05:30:08;101213.34;;;32.32;38.47
52032;BME280;38044;45.148;39.604;2023-06-22T05:32:34;101210.56;;;32.75;38.63
52032;BME280;38044;45.148;39.604;2023-06-22T05:35:00;101220.53;;;32.93;37.61
52032;BME280;38044;45.148;39.604;2023-06-22T05:37:26;101211.72;;;33.34;37.87
52032;BME280;38044;45.148;39.604;2023-06-22T05:39:52;101215.56;;;33.40;37.44
52032;BME280;38044;45.148;39.604;2023-06-22T05:42:19;101207.16;;;33.24;36.87
52032;BME280;38044;45.148;39.604;2023-06-22T05:44:45;101210.16;;;33.50;37.67
52032;BME280;38044;45.148;39.604;2023-06-22T06:02:14;101221.47;;;34.12;34.20
52032;BME280;38044;45.148;39.604;2023-06-22T06:04:40;101219.28;;;33.86;34.48
52032;BME280;38044;45.148;39.604;2023-06-22T06:07:06;101212.34;;;34.40;34.86
52032;BME280;38044;45.148;39.604;2023-06-22T06:09:32;101224.91;;;33.99;34.89
52032;BME280;38044;45.148;39.604;2023-06-22T06:11:58;101231.47;;;33.60;34.70
52032;BME280;38044;45.148;39.604;2023-06-22T06:14:24;101236.25;;;33.92;35.80
52032;BME280;38044;45.148;39.604;2023-06-22T06:16:50;101235.88;;;34.39;34.53
52032;BME280;38044;45.148;39.604;2023-06-22T06:19:16;101238.25;;;33.75;35.14
52032;BME280;38044;45.148;39.604;2023-06-22T06:21:41;101242.97;;;33.78;35.02
52032;BME280;38044;45.148;39.604;2023-06-22T06:24:07;101227.97;;;33.56;34.34
52032;BME280;38044;45.148;39.604;2023-06-22T06:26:33;101246.13;;;33.80;35.56
52032;BME280;38044;45.148;39.604;2023-06-22T06:29:01;101246.63;;;34.08;34.35
52032;BME280;38044;45.148;39.604;2023-06-22T06:31:27;101244.34;;;33.70;34.40
52032;BME280;38044;45.148;39.604;2023-06-22T06:33:54;101252.22;;;34.08;34.38
52032;BME280;38044;45.148;39.604;2023-06-22T06:36:20;101237.66;;;34.00;33.97
52032;BME280;38044;45.148;39.604;2023-06-22T06:38:52;101251.13;;;34.05;32.90
52032;BME280;38044;45.148;39.604;2023-06-22T06:41:18;101234.25;;;33.76;33.71
52032;BME280;38044;45.148;39.604;2023-06-22T06:43:44;101245.97;;;34.04;34.18
52032;BME280;38044;45.148;39.604;2023-06-22T06:46:10;101234.81;;;34.04;34.15
52032;BME280;38044;45.148;39.604;2023-06-22T06:48:36;101237.38;;;33.62;33.28
52032;BME280;38044;45.148;39.604;2023-06-22T06:51:02;101244.34;;;33.70;35.05
52032;BME280;38044;45.148;39.604;2023-06-22T06:53:28;101250.75;;;34.20;33.33
52032;BME280;38044;45.148;39.604;2023-06-22T06:55:54;101251.44;;;34.53;33.05
52032;BME280;38044;45.148;39.604;2023-06-22T06:58:20;101265.81;;;34.22;32.90
52032;BME280;38044;45.148;39.604;2023-06-22T07:00:46;101256.91;;;33.78;33.57
52032;BME280;38044;45.148;39.604;2023-06-22T07:03:12;101263.44;;;33.35;33.68
52032;BME280;38044;45.148;39.604;2023-06-22T07:05:38;101256.28;;;33.54;33.35
52032;BME280;38044;45.148;39.604;2023-06-22T07:08:04;101264.41;;;33.81;33.05
52032;BME280;38044;45.148;39.604;2023-06-22T07:10:30;101265.81;;;33.90;32.48
52032;BME280;38044;45.148;39.604;2023-06-22T07:12:56;101259.88;;;33.71;32.78
52032;BME280;38044;45.148;39.604;2023-06-22T07:15:22;101260.66;;;33.72;33.50
52032;BME280;38044;45.148;39.604;2023-06-22T07:17:48;101272.34;;;34.16;32.77
52032;BME280;38044;45.148;39.604;2023-06-22T07:20:14;101268.59;;;33.90;32.63
52032;BME280;38044;45.148;39.604;2023-06-22T07:22:41;101275.00;;;33.70;31.69
52032;BME280;38044;45.148;39.604;2023-06-22T07:25:08;101275.03;;;33.14;32.55
52032;BME280;38044;45.148;39.604;2023-06-22T07:27:44;101268.91;;;33.59;33.54
52032;BME280;38044;45.148;39.604;2023-06-22T07:30:11;101281.06;;;33.49;33.82
52032;BME280;38044;45.148;39.604;2023-06-22T07:32:40;101263.03;;;34.06;31.88
52032;BME280;38044;45.148;39.604;2023-06-22T07:35:07;101278.59;;;33.51;33.82
52032;BME280;38044;45.148;39.604;2023-06-22T07:37:36;101267.44;;;33.54;33.77
52032;BME280;38044;45.148;39.604;2023-06-22T07:40:02;101279.91;;;33.66;32.87
52032;BME280;38044;45.148;39.604;2023-06-22T07:42:31;101280.56;;;33.54;32.73
52032;BME280;38044;45.148;39.604;2023-06-22T07:44:58;101282.09;;;33.75;32.88
52032;BME280;38044;45.148;39.604;2023-06-22T07:47:24;101261.78;;;33.58;33.38
52032;BME280;38044;45.148;39.604;2023-06-22T07:49:58;101273.47;;;33.85;32.36
52032;BME280;38044;45.148;39.604;2023-06-22T07:52:27;101263.28;;;34.28;32.65
52032;BME280;38044;45.148;39.604;2023-06-22T07:54:53;101263.53;;;33.84;32.27
52032;BME280;38044;45.148;39.604;2023-06-22T07:57:19;101278.06;;;33.76;32.70
52032;BME280;38044;45.148;39.604;2023-06-22T07:59:45;101266.16;;;33.75;32.02
52032;BME280;38044;45.148;39.604;2023-06-22T08:02:11;101269.63;;;33.79;33.05
52032;BME280;38044;45.148;39.604;2023-06-22T08:04:37;101258.28;;;33.70;33.20
52032;BME280;38044;45.148;39.604;2023-06-22T08:07:03;101264.81;;;33.63;32.74
52032;BME280;38044;45.148;39.604;2023-06-22T08:09:31;101258.22;;;33.90;32.55
52032;BME280;38044;45.148;39.604;2023-06-22T08:11:57;101265.38;;;34.07;31.08
52032;BME280;38044;45.148;39.604;2023-06-22T08:14:25;101280.59;;;33.34;31.83
52032;BME280;38044;45.148;39.604;2023-06-22T08:16:51;101268.16;;;33.18;33.21
52032;BME280;38044;45.148;39.604;2023-06-22T08:19:17;101272.03;;;33.05;32.12
52032;BME280;38044;45.148;39.604;2023-06-22T08:21:43;101282.22;;;32.91;33.22
52032;BME280;38044;45.148;39.604;2023-06-22T08:24:09;101277.66;;;33.21;31.49
52032;BME280;38044;45.148;39.604;2023-06-22T08:26:35;101272.28;;;32.70;32.71
52032;BME280;38044;45.148;39.604;2023-06-22T08:29:03;101279.38;;;32.95;32.39
52032;BME280;38044;45.148;39.604;2023-06-22T08:31:30;101273.81;;;33.15;31.70
52032;BME280;38044;45.148;39.604;2023-06-22T08:33:56;101267.78;;;32.96;31.03
52032;BME280;38044;45.148;39.604;2023-06-22T08:36:22;101286.69;;;33.09;30.53
52032;BME280;38044;45.148;39.604;2023-06-22T08:38:48;101286.88;;;32.98;31.12
52032;BME280;38044;45.148;39.604;2023-06-22T08:41:19;101285.09;;;33.08;31.27
52032;BME280;38044;45.148;39.604;2023-06-22T08:43:45;101298.97;;;33.31;32.43
52032;BME280;38044;45.148;39.604;2023-06-22T08:46:13;101294.00;;;33.39;32.46
52032;BME280;38044;45.148;39.604;2023-06-22T08:48:39;101294.19;;;33.12;31.28
52032;BME280;38044;45.148;39.604;2023-06-22T08:51:05;101288.69;;;33.28;32.19
52032;BME280;38044;45.148;39.604;2023-06-22T08:53:31;101283.44;;;33.10;31.35
52032;BME280;38044;45.148;39.604;2023-06-22T08:55:57;101293.13;;;33.06;30.85
52032;BME280;38044;45.148;39.604;2023-06-22T08:58:23;101285.50;;;32.86;31.74
52032;BME280;38044;45.148;39.604;2023-06-22T09:00:49;101290.72;;;32.84;32.45
52032;BME280;38044;45.148;39.604;2023-06-22T09:03:17;101291.47;;;32.65;31.01
52032;BME280;38044;45.148;39.604;2023-06-22T09:05:42;101285.91;;;32.65;32.55
52032;BME280;38044;45.148;39.604;2023-06-22T09:08:08;101290.91;;;33.17;32.60
52032;BME280;38044;45.148;39.604;2023-06-22T09:10:34;101275.63;;;33.05;31.76
52032;BME280;38044;45.148;39.604;2023-06-22T09:13:00;101276.34;;;33.46;32.32
52032;BME280;38044;45.148;39.604;2023-06-22T09:15:25;101289.59;;;33.02;31.55
52032;BME280;38044;45.148;39.604;2023-06-22T09:17:51;101289.44;;;32.89;32.72
52032;BME280;38044;45.148;39.604;2023-06-22T09:20:19;101275.34;;;32.76;32.68
52032;BME280;38044;45.148;39.604;2023-06-22T09:22:45;101275.81;;;32.94;32.53
52032;BME280;38044;45.148;39.604;2023-06-22T09:25:11;101282.84;;;33.39;32.05
52032;BME280;38044;45.148;39.604;2023-06-22T09:27:38;101274.53;;;33.19;31.10
52032;BME280;38044;45.148;39.604;2023-06-22T09:30:04;101273.72;;;32.79;31.76
52032;BME280;38044;45.148;39.604;2023-06-22T09:32:30;101278.44;;;32.82;31.97
52032;BME280;38044;45.148;39.604;2023-06-22T09:34:56;101285.13;;;32.84;33.15
52032;BME280;38044;45.148;39.604;2023-06-22T09:37:21;101276.09;;;32.80;32.39
52032;BME280;38044;45.148;39.604;2023-06-22T09:39:47;101281.78;;;32.73;33.22
52032;BME280;38044;45.148;39.604;2023-06-22T09:42:13;101273.78;;;32.75;32.35
52032;BME280;38044;45.148;39.604;2023-06-22T09:44:39;101276.72;;;32.44;32.02
52032;BME280;38044;45.148;39.604;2023-06-22T09:47:05;101267.41;;;32.31;31.48
52032;BME280;38044;45.148;39.604;2023-06-22T09:49:31;101272.84;;;31.91;32.82
52032;BME280;38044;45.148;39.604;2023-06-22T09:51:57;101264.81;;;31.39;33.81
52032;BME280;38044;45.148;39.604;2023-06-22T09:54:23;101255.28;;;30.71;33.95
52032;BME280;38044;45.148;39.604;2023-06-22T09:56:49;101261.00;;;30.53;35.78
52032;BME280;38044;45.148;39.604;2023-06-22T09:59:15;101260.75;;;29.89;35.84
52032;BME280;38044;45.148;39.604;2023-06-22T10:01:41;101266.66;;;29.10;36.66
52032;BME280;38044;45.148;39.604;2023-06-22T10:04:06;101254.00;;;29.19;36.57
52032;BME280;38044;45.148;39.604;2023-06-22T10:06:32;101254.72;;;29.27;37.98
52032;BME280;38044;45.148;39.604;2023-06-22T10:09:01;101256.06;;;29.75;37.25
52032;BME280;38044;45.148;39.604;2023-06-22T10:11:26;101254.72;;;29.97;36.96
52032;BME280;38044;45.148;39.604;2023-06-22T10:13:56;101259.16;;;29.88;38.29
52032;BME280;38044;45.148;39.604;2023-06-22T10:16:29;101258.94;;;29.57;35.77
52032;BME280;38044;45.148;39.604;2023-06-22T10:18:55;101246.03;;;29.29;37.27
52032;BME280;38044;45.148;39.604;2023-06-22T10:21:21;101262.78;;;28.82;37.86
52032;BME280;38044;45.148;39.604;2023-06-22T10:23:47;101254.44;;;28.96;38.57
52032;BME280;38044;45.148;39.604;2023-06-22T10:26:13;101253.97;;;29.23;37.63
52032;BME280;38044;45.148;39.604;2023-06-22T10:28:38;101264.06;;;29.62;37.55
52032;BME280;38044;45.148;39.604;2023-06-22T10:31:04;101268.78;;;29.69;36.65
52032;BME280;38044;45.148;39.604;2023-06-22T10:33:30;101270.78;;;29.68;36.51
52032;BME280;38044;45.148;39.604;2023-06-22T10:35:56;101267.03;;;29.93;35.78
52032;BME280;38044;45.148;39.604;2023-06-22T10:38:22;101260.44;;;29.72;35.69
52032;BME280;38044;45.148;39.604;2023-06-22T10:40:48;101265.03;;;29.30;36.30
52032;BME280;38044;45.148;39.604;2023-06-22T10:43:13;101270.69;;;28.73;38.84
52032;BME280;38044;45.148;39.604;2023-06-22T10:45:39;101272.72;;;28.55;37.87
52032;BME280;38044;45.148;39.604;2023-06-22T10:48:05;101277.75;;;29.06;38.90
52032;BME280;38044;45.148;39.604;2023-06-22T10:50:31;101269.34;;;29.35;37.56
52032;BME280;38044;45.148;39.604;2023-06-22T10:52:57;101277.78;;;29.03;38.12
52032;BME280;38044;45.148;39.604;2023-06-22T10:55:23;101274.63;;;28.83;36.53
52032;BME280;38044;45.148;39.604;2023-06-22T10:57:49;101284.16;;;28.64;38.25
52032;BME280;38044;45.148;39.604;2023-06-22T11:00:15;101290.09;;;28.34;38.77
52032;BME280;38044;45.148;39.604;2023-06-22T11:02:41;101285.69;;;28.75;36.33
52032;BME280;38044;45.148;39.604;2023-06-22T11:05:08;101288.81;;;29.10;37.50
52032;BME280;38044;45.148;39.604;2023-06-22T11:07:33;101277.72;;;29.17;36.13
52032;BME280;38044;45.148;39.604;2023-06-22T11:09:59;101280.03;;;29.29;35.50
52032;BME280;38044;45.148;39.604;2023-06-22T11:12:25;101283.31;;;29.03;35.88
52032;BME280;38044;45.148;39.604;2023-06-22T11:14:51;101282.16;;;28.82;36.24
52032;BME280;38044;45.148;39.604;2023-06-22T11:17:17;101269.06;;;29.08;38.51
52032;BME280;38044;45.148;39.604;2023-06-22T11:19:44;101273.03;;;28.89;37.45
52032;BME280;38044;45.148;39.604;2023-06-22T11:22:10;101284.53;;;28.41;37.55
52032;BME280;38044;45.148;39.604;2023-06-22T11:24:36;101273.13;;;28.53;39.30
52032;BME280;38044;45.148;39.604;2023-06-22T11:27:02;101273.88;;;28.57;38.32
52032;BME280;38044;45.148;39.604;2023-06-22T11:29:27;101279.41;;;28.50;38.97
52032;BME280;38044;45.148;39.604;2023-06-22T11:31:53;101272.31;;;28.45;37.51
52032;BME280;38044;45.148;39.604;2023-06-22T11:34:19;101270.34;;;28.28;34.30
52032;BME280;38044;45.148;39.604;2023-06-22T11:36:45;101274.69;;;28.50;36.73
52032;BME280;38044;45.148;39.604;2023-06-22T11:39:11;101262.81;;;28.39;38.60
52032;BME280;38044;45.148;39.604;2023-06-22T11:41:39;101270.34;;;28.28;38.67
52032;BME280;38044;45.148;39.604;2023-06-22T11:44:05;101269.94;;;28.33;38.90
52032;BME280;38044;45.148;39.604;2023-06-22T11:46:31;101266.78;;;28.17;38.41
52032;BME280;38044;45.148;39.604;2023-06-22T11:48:57;101270.31;;;27.99;37.51
52032;BME280;38044;45.148;39.604;2023-06-22T11:51:23;101268.34;;;28.11;37.63
52032;BME280;38044;45.148;39.604;2023-06-22T11:53:49;101260.47;;;28.02;38.05
52032;BME280;38044;45.148;39.604;2023-06-22T11:56:15;101256.53;;;28.10;37.50
52032;BME280;38044;45.148;39.604;2023-06-22T11:58:41;101249.00;;;28.11;37.69
52032;BME280;38044;45.148;39.604;2023-06-22T12:01:07;101257.28;;;28.03;39.75
52032;BME280;38044;45.148;39.604;2023-06-22T12:03:32;101262.03;;;28.06;37.47
52032;BME280;38044;45.148;39.604;2023-06-22T12:05:59;101258.09;;;27.93;36.27
52032;BME280;38044;45.148;39.604;2023-06-22T12:08:25;101249.41;;;27.88;37.00
52032;BME280;38044;45.148;39.604;2023-06-22T12:10:51;101254.91;;;27.95;38.49
52032;BME280;38044;45.148;39.604;2023-06-22T12:13:17;101256.50;;;27.81;36.90
52032;BME280;38044;45.148;39.604;2023-06-22T12:15:43;101230.41;;;27.65;38.32
52032;BME280;38044;45.148;39.604;2023-06-22T12:18:09;101261.19;;;27.74;38.27
52032;BME280;38044;45.148;39.604;2023-06-22T12:20:35;101252.50;;;27.65;37.87
52032;BME280;38044;45.148;39.604;2023-06-22T12:23:01;101243.78;;;27.62;38.07
52032;BME280;38044;45.148;39.604;2023-06-22T12:25:27;101237.44;;;27.48;37.17
52032;BME280;38044;45.148;39.604;2023-06-22T12:27:53;101258.38;;;27.59;38.19
52032;BME280;38044;45.148;39.604;2023-06-22T12:30:19;101254.09;;;27.76;37.40
52032;BME280;38044;45.148;39.604;2023-06-22T12:32:45;101258.78;;;27.61;35.90
52032;BME280;38044;45.148;39.604;2023-06-22T12:35:10;101257.56;;;27.55;36.29
52032;BME280;38044;45.148;39.604;2023-06-22T12:37:42;101247.34;;;27.59;36.71
52032;BME280;38044;45.148;39.604;2023-06-22T12:40:09;101254.75;;;27.37;35.04
52032;BME280;38044;45.148;39.604;2023-06-22T12:42:35;101261.88;;;27.46;35.69
52032;BME280;38044;45.148;39.604;2023-06-22T12:45:01;101251.63;;;27.50;36.26
52032;BME280;38044;45.148;39.604;2023-06-22T12:47:27;101242.97;;;27.55;35.44
52032;BME280;38044;45.148;39.604;2023-06-22T12:49:52;101244.47;;;27.24;34.95
52032;BME280;38044;45.148;39.604;2023-06-22T12:52:18;101244.50;;;27.27;34.99
52032;BME280;38044;45.148;39.604;2023-06-22T12:54:44;101252.41;;;27.36;35.97
52032;BME280;38044;45.148;39.604;2023-06-22T12:57:11;101243.34;;;27.39;36.75
52032;BME280;38044;45.148;39.604;2023-06-22T12:59:37;101243.66;;;27.20;34.89
52032;BME280;38044;45.148;39.604;2023-06-22T13:02:03;101245.25;;;27.24;35.26